Time;durP1;ratioP1;P1;durP2;ratioP2;P2;SDS_P1;SDS_P2;PMS_P1;PMS_P2;Temp;Humidity;BMP_temperature;BMP_pressure;BME280_temperature;BME280_humidity;BME280_pressure;Samples;Min_cycle;Max_cycle;Signal;HPM_P1;HPM_P2
2022/09/21 00:01:06;;;;;;;9.57;1.70;;;8.80;99.90;;;;;;5073366;28;20052;-78
2022/09/21 00:03:32;;;;;;;2.50;1.38;;;8.80;99.90;;;;;;5090518;28;20044;-78
2022/09/21 00:06:06;;;;;;;5.55;1.58;;;8.80;99.90;;;;;;5090723;28;20056;-78
2022/09/21 00:08:33;;;;;;;4.15;1.90;;;8.70;99.90;;;;;;5091242;28;20419;-78
2022/09/21 00:10:59;;;;;;;;;;;8.70;99.90;;;;;;5090732;28;20046;-78
2022/09/21 00:13:27;;;;;;;7.40;2.30;;;8.70;99.90;;;;;;5074149;28;19920;-78
2022/09/21 00:15:55;;;;;;;2.22;1.50;;;8.70;99.90;;;;;;5079383;28;20040;-81
2022/09/21 00:18:22;;;;;;;5.07;1.80;;;8.80;99.90;;;;;;5110473;28;20134;-79
2022/09/21 00:20:48;;;;;;;4.95;1.77;;;8.80;99.90;;;;;;5111065;28;20484;-83
2022/09/21 00:23:15;;;;;;;5.78;2.03;;;8.80;99.90;;;;;;5091878;28;20489;-78
2022/09/21 00:25:41;;;;;;;5.90;1.65;;;8.80;99.90;;;;;;5091015;28;20131;-78
2022/09/21 00:28:06;;;;;;;6.30;1.70;;;8.80;99.90;;;;;;5100840;28;20135;-78
2022/09/21 00:30:32;;;;;;;7.30;2.13;;;8.80;99.90;;;;;;5093934;28;20046;-78
2022/09/21 00:32:58;;;;;;;2.58;1.63;;;8.80;99.90;;;;;;5108505;28;20558;-78
2022/09/21 00:35:24;;;;;;;3.90;1.60;;;8.80;99.90;;;;;;5111189;28;20051;-79
2022/09/21 00:37:50;;;;;;;2.90;1.67;;;8.80;99.90;;;;;;5110309;28;20067;-81
2022/09/21 00:40:16;;;;;;;4.95;1.80;;;8.80;99.90;;;;;;5100172;28;20119;-81
2022/09/21 00:42:42;;;;;;;2.95;1.58;;;8.80;99.90;;;;;;5090108;28;20076;-79
2022/09/21 00:45:19;;;;;;;5.13;1.80;;;8.80;99.90;;;;;;5090026;28;20528;-79
2022/09/21 00:47:51;;;;;;;7.20;1.75;;;8.80;99.90;;;;;;5088827;28;20043;-79
2022/09/21 00:50:22;;;;;;;2.00;1.15;;;8.70;99.90;;;;;;5090563;28;20140;-78
2022/09/21 00:52:55;;;;;;;7.72;1.48;;;8.70;99.90;;;;;;5090219;28;20048;-82
2022/09/21 00:55:30;;;;;;;2.08;1.27;;;8.60;99.90;;;;;;5091026;28;20048;-79
2022/09/21 00:58:08;;;;;;;1.67;1.35;;;8.40;99.90;;;;;;5097402;28;20044;-78
2022/09/21 01:00:39;;;;;;;18.90;2.15;;;8.30;99.90;;;;;;5090259;28;20071;-80
2022/09/21 01:03:07;;;;;;;1.98;1.30;;;8.30;99.90;;;;;;5088051;28;20386;-80
2022/09/21 01:05:33;;;;;;;2.72;1.65;;;8.20;99.90;;;;;;5107543;28;20582;-79
2022/09/21 01:08:00;;;;;;;;;;;8.20;99.90;;;;;;5110144;28;20043;-78
2022/09/21 01:10:34;;;;;;;3.30;1.48;;;8.20;99.90;;;;;;5110305;28;19926;-79
2022/09/21 01:13:37;;;;;;;26.65;2.00;;;8.20;99.90;;;;;;5109501;28;20051;-79
2022/09/21 01:16:15;;;;;;;6.07;1.10;;;8.10;99.90;;;;;;5091997;28;20431;-79
2022/09/21 01:19:05;;;;;;;4.78;1.02;;;8.10;99.90;;;;;;5095867;28;20048;-78
2022/09/21 01:21:36;;;;;;;1.60;0.90;;;8.00;99.90;;;;;;5089765;28;20122;-79
2022/09/21 01:24:20;;;;;;;2.75;1.10;;;7.90;99.90;;;;;;5089172;28;20095;-80
2022/09/21 01:26:48;;;;;;;2.28;1.42;;;7.90;99.90;;;;;;5089301;28;20048;-78
2022/09/21 01:29:30;;;;;;;3.85;1.50;;;7.90;99.90;;;;;;5088834;28;20501;-78
2022/09/21 01:32:19;;;;;;;2.97;1.33;;;7.80;99.90;;;;;;5086873;28;20154;-79
2022/09/21 01:35:22;;;;;;;1.27;1.17;;;7.80;99.90;;;;;;5089569;28;20047;-79
2022/09/21 01:37:53;;;;;;;1.35;1.20;;;7.80;99.90;;;;;;5080669;28;20477;-79
2022/09/21 01:40:22;;;;;;;1.50;1.17;;;7.80;99.90;;;;;;5089036;28;20048;-79
2022/09/21 01:42:50;;;;;;;7.70;1.52;;;7.80;99.90;;;;;;5088629;28;20056;-79
2022/09/21 01:45:23;;;;;;;138.13;7.97;;;7.80;99.90;;;;;;5088717;28;20040;-78
2022/09/21 01:47:50;;;;;;;106.82;3.35;;;7.90;99.90;;;;;;5087534;28;20117;-78
2022/09/21 01:50:18;;;;;;;95.35;6.15;;;7.70;99.90;;;;;;5098198;28;20063;-79
2022/09/21 01:52:52;;;;;;;86.38;4.50;;;7.70;99.90;;;;;;5092139;28;20434;-78
2022/09/21 01:55:33;;;;;;;27.75;2.10;;;7.60;99.90;;;;;;5108307;28;20044;-78
2022/09/21 01:58:10;;;;;;;41.40;2.13;;;7.50;99.90;;;;;;5104912;28;20121;-78
2022/09/21 02:00:38;;;;;;;25.45;1.63;;;7.50;99.90;;;;;;5103200;28;20048;-78
2022/09/21 02:03:21;;;;;;;1.25;0.77;;;7.50;99.90;;;;;;5090118;28;20108;-78
2022/09/21 02:05:47;;;;;;;0.85;0.73;;;7.50;99.90;;;;;;5109192;28;20511;-78
2022/09/21 02:08:13;;;;;;;5.60;0.85;;;7.40;99.90;;;;;;5108669;28;20079;-78
2022/09/21 02:10:49;;;;;;;3.22;0.98;;;7.50;99.90;;;;;;5109120;28;20376;-78
2022/09/21 02:13:17;;;;;;;2.35;0.80;;;7.50;99.90;;;;;;5108089;28;20259;-78
2022/09/21 02:16:04;;;;;;;0.90;0.90;;;7.40;99.90;;;;;;5108965;28;20050;-78
2022/09/21 02:18:49;;;;;;;;;;;7.50;99.90;;;;;;5095918;28;20089;-78
2022/09/21 02:21:26;;;;;;;143.07;6.20;;;7.50;99.90;;;;;;5088241;28;19920;-79
2022/09/21 02:24:24;;;;;;;3.20;0.82;;;7.40;99.90;;;;;;5102609;28;20060;-79
2022/09/21 02:26:53;;;;;;;7.45;1.10;;;7.40;99.90;;;;;;5108519;28;20415;-77
2022/09/21 02:29:31;;;;;;;162.45;9.18;;;7.30;99.90;;;;;;5108358;28;20079;-79
2022/09/21 02:32:13;;;;;;;45.17;2.90;;;7.30;99.90;;;;;;5106480;28;20054;-83
2022/09/21 02:35:08;;;;;;;7.10;0.90;;;7.20;99.90;;;;;;5098628;28;20051;-78
2022/09/21 02:37:43;;;;;;;15.70;1.88;;;7.10;99.90;;;;;;5095306;28;20048;-80
2022/09/21 02:40:30;;;;;;;1.60;1.13;;;7.00;99.90;;;;;;5099185;28;20043;-78
2022/09/21 02:43:06;;;;;;;4.65;1.05;;;7.00;99.90;;;;;;5108381;28;20476;-80
2022/09/21 02:45:36;;;;;;;;;;;7.00;99.90;;;;;;5109122;28;20082;-79
2022/09/21 02:48:11;;;;;;;35.25;1.50;;;7.00;99.90;;;;;;5106765;28;19923;-83
2022/09/21 02:50:45;;;;;;;5.70;1.40;;;7.00;99.90;;;;;;5108172;28;20088;-81
2022/09/21 02:53:12;;;;;;;2.70;1.08;;;6.90;99.90;;;;;;5091651;28;20085;-80
2022/09/21 02:55:39;;;;;;;88.65;3.95;;;6.90;99.90;;;;;;5111843;28;20057;-79
2022/09/21 02:58:09;;;;;;;107.63;4.07;;;6.90;99.90;;;;;;5093605;28;20353;-78
2022/09/21 03:00:35;;;;;;;20.00;1.75;;;6.90;99.90;;;;;;5111160;28;20055;-79
2022/09/21 03:03:17;;;;;;;5.35;1.20;;;6.80;99.90;;;;;;5109437;28;20418;-81
2022/09/21 03:05:45;;;;;;;1.90;0.82;;;6.70;99.90;;;;;;5097558;28;20058;-78
2022/09/21 03:08:11;;;;;;;1.83;1.30;;;6.60;99.90;;;;;;5090331;28;20055;-78
2022/09/21 03:10:39;;;;;;;4.50;1.73;;;6.60;99.90;;;;;;5106537;27;20051;-78
2022/09/21 03:13:08;;;;;;;3.65;1.70;;;6.60;99.90;;;;;;5110226;28;20078;-78
2022/09/21 03:15:38;;;;;;;4.10;1.95;;;6.50;99.90;;;;;;5111431;28;20500;-78
2022/09/21 03:18:08;;;;;;;3.25;1.83;;;6.60;99.90;;;;;;5093952;28;20050;-81
2022/09/21 03:20:35;;;;;;;3.00;1.63;;;6.60;99.90;;;;;;5057710;28;20456;-78
2022/09/21 03:23:01;;;;;;;2.17;1.58;;;6.50;99.90;;;;;;5106184;28;20054;-81
2022/09/21 03:25:27;;;;;;;100.80;4.63;;;6.60;99.90;;;;;;5090805;28;20047;-79
2022/09/21 03:27:54;;;;;;;1.27;1.10;;;6.70;99.90;;;;;;5110696;28;20037;-78
2022/09/21 03:30:20;;;;;;;;;;;6.60;99.90;;;;;;5110794;28;20051;-79
2022/09/21 03:32:49;;;;;;;4.43;1.42;;;6.60;99.90;;;;;;5108659;28;19927;-79
2022/09/21 03:35:15;;;;;;;4.35;1.65;;;6.60;99.90;;;;;;5110275;28;20456;-78
2022/09/21 03:37:41;;;;;;;3.33;1.55;;;6.60;99.90;;;;;;5110197;28;20356;-79
2022/09/21 03:40:07;;;;;;;6.00;2.05;;;6.60;99.90;;;;;;5098928;28;20055;-83
2022/09/21 03:42:33;;;;;;;5.68;1.80;;;6.60;99.90;;;;;;5089338;28;20072;-80
2022/09/21 03:44:58;;;;;;;133.75;7.93;;;6.60;99.90;;;;;;5073268;28;20141;-80
2022/09/21 03:47:24;;;;;;;73.05;4.18;;;6.50;99.90;;;;;;5087413;28;20052;-80
2022/09/21 03:49:50;;;;;;;1.08;1.00;;;6.60;99.90;;;;;;5089757;28;20121;-79
2022/09/21 03:52:15;;;;;;;1.30;1.10;;;6.50;99.90;;;;;;5105574;28;20038;-79
2022/09/21 03:54:41;;;;;;;1.40;1.20;;;6.50;99.90;;;;;;5092992;28;20059;-82
2022/09/21 03:57:07;;;;;;;1.00;0.95;;;6.50;99.90;;;;;;5109168;28;20039;-82
2022/09/21 03:59:34;;;;;;;;;;;6.50;99.90;;;;;;5091274;28;20055;-81
2022/09/21 04:02:00;;;;;;;10.00;0.93;;;6.50;99.90;;;;;;5087954;28;19955;-80
2022/09/21 04:04:26;;;;;;;1.27;0.82;;;6.40;99.90;;;;;;5099167;28;20047;-80
2022/09/21 04:06:51;;;;;;;3.78;0.60;;;6.40;99.90;;;;;;5076331;28;20038;-80
2022/09/21 04:09:17;;;;;;;1.15;0.90;;;6.40;99.90;;;;;;5109351;28;20044;-81
2022/09/21 04:11:44;;;;;;;1.42;1.00;;;6.40;99.90;;;;;;5108733;28;20481;-80
2022/09/21 04:14:11;;;;;;;78.00;3.70;;;6.40;99.90;;;;;;5109475;28;20079;-79
2022/09/21 04:16:37;;;;;;;154.75;9.48;;;6.40;99.90;;;;;;5107790;28;20571;-79
2022/09/21 04:19:03;;;;;;;1.38;0.60;;;6.30;99.90;;;;;;5093111;28;20078;-80
2022/09/21 04:21:28;;;;;;;7.18;0.77;;;6.30;99.90;;;;;;5109125;28;20315;-80
2022/09/21 04:23:54;;;;;;;0.77;0.77;;;6.30;99.90;;;;;;5108455;28;20863;-80
2022/09/21 04:26:24;;;;;;;2.00;1.45;;;6.30;99.90;;;;;;5097072;28;20721;-79
2022/09/21 04:28:50;;;;;;;2.15;1.27;;;6.20;99.90;;;;;;5109332;28;20079;-80
2022/09/21 04:31:16;;;;;;;3.28;1.27;;;6.20;99.90;;;;;;5093444;27;20057;-79
2022/09/21 04:33:42;;;;;;;2.67;1.60;;;6.30;99.90;;;;;;5095630;27;20047;-79
2022/09/21 04:36:08;;;;;;;4.88;1.13;;;6.30;99.90;;;;;;5112472;27;20051;-82
2022/09/21 04:38:33;;;;;;;24.67;1.83;;;6.30;99.90;;;;;;5095311;27;20075;-79
2022/09/21 04:40:59;;;;;;;1.52;0.85;;;6.20;99.90;;;;;;5106233;28;20051;-79
2022/09/21 04:43:25;;;;;;;1.23;1.00;;;6.20;99.90;;;;;;5091229;28;20163;-79
2022/09/21 04:45:51;;;;;;;1.58;1.25;;;6.10;99.90;;;;;;5075219;28;20465;-81
2022/09/21 04:48:17;;;;;;;2.83;1.35;;;6.10;99.90;;;;;;5100369;27;20050;-81
2022/09/21 04:50:47;;;;;;;1.58;1.02;;;6.10;99.90;;;;;;5091913;28;20035;-79
2022/09/21 04:53:12;;;;;;;2.63;1.52;;;6.10;99.90;;;;;;5091482;28;20143;-82
2022/09/21 04:55:38;;;;;;;6.05;1.67;;;6.10;99.90;;;;;;5109033;28;20540;-80
2022/09/21 04:58:04;;;;;;;2.72;1.40;;;6.10;99.90;;;;;;5108411;28;20135;-79
2022/09/21 05:00:30;;;;;;;2.80;1.50;;;6.10;99.90;;;;;;5074732;27;20039;-80
2022/09/21 05:02:55;;;;;;;2.83;1.30;;;6.10;99.90;;;;;;5056708;28;20039;-79
2022/09/21 05:05:21;;;;;;;80.28;3.95;;;6.00;99.90;;;;;;5074275;28;20047;-79
2022/09/21 05:07:47;;;;;;;47.40;3.28;;;6.10;99.90;;;;;;5091521;28;20043;-81
2022/09/21 05:10:12;;;;;;;0.90;0.90;;;6.00;99.90;;;;;;5103613;27;20055;-81
2022/09/21 05:12:38;;;;;;;1.70;1.02;;;6.00;99.90;;;;;;5099011;27;20043;-79
2022/09/21 05:15:04;;;;;;;2.22;1.35;;;6.00;99.90;;;;;;5092878;28;20043;-81
2022/09/21 05:17:30;;;;;;;;;;;5.90;99.90;;;;;;5089316;28;20119;-81
2022/09/21 05:19:55;;;;;;;0.90;0.90;;;5.90;99.90;;;;;;5091695;28;20018;-79
2022/09/21 05:22:21;;;;;;;1.08;1.00;;;5.80;99.90;;;;;;5090983;28;20069;-79
2022/09/21 05:24:47;;;;;;;1.58;1.13;;;5.90;99.90;;;;;;5098297;27;20043;-80
2022/09/21 05:27:13;;;;;;;2.35;1.42;;;5.90;99.90;;;;;;5095323;28;20054;-81
2022/09/21 05:29:40;;;;;;;3.67;1.67;;;5.90;99.90;;;;;;5090970;28;20071;-79
2022/09/21 05:32:38;;;;;;;2.10;1.67;;;6.00;99.90;;;;;;5072398;27;20054;-79
2022/09/21 05:35:35;;;;;;;2.30;1.40;;;5.90;99.90;;;;;;5111573;27;20047;-79
2022/09/21 05:38:21;;;;;;;1.83;1.20;;;5.90;99.90;;;;;;5107246;27;20054;-79
2022/09/21 05:40:49;;;;;;;1.60;1.00;;;5.90;99.90;;;;;;5110691;27;20139;-79
2022/09/21 05:43:16;;;;;;;3.47;1.15;;;5.90;99.90;;;;;;5110564;27;20242;-80
2022/09/21 05:45:45;;;;;;;2.70;1.33;;;6.00;99.90;;;;;;5111140;27;20047;-80
2022/09/21 05:48:22;;;;;;;6.10;1.80;;;6.00;99.90;;;;;;5109273;27;20051;-80
2022/09/21 05:50:51;;;;;;;;;;;6.00;99.90;;;;;;5109535;27;20047;-80
2022/09/21 05:53:29;;;;;;;7.60;2.20;;;6.00;99.90;;;;;;5110574;27;20288;-81
2022/09/21 05:56:01;;;;;;;17.33;2.60;;;6.10;99.90;;;;;;5109786;27;20040;-79
2022/09/21 05:58:37;;;;;;;11.35;1.98;;;6.10;99.90;;;;;;5110348;27;20054;-80
2022/09/21 06:01:13;;;;;;;17.27;2.25;;;6.10;99.90;;;;;;5082867;28;20043;-79
2022/09/21 06:03:41;;;;;;;2.72;1.70;;;6.20;99.90;;;;;;5089882;28;20333;-79
2022/09/21 06:06:08;;;;;;;5.40;1.80;;;6.20;99.90;;;;;;5074687;28;20047;-80
2022/09/21 06:08:34;;;;;;;5.80;1.50;;;6.20;99.90;;;;;;5076717;27;20043;-80
2022/09/21 06:11:00;;;;;;;1.83;1.50;;;6.30;99.90;;;;;;5110844;27;20043;-79
2022/09/21 06:13:26;;;;;;;3.95;2.08;;;6.20;99.90;;;;;;5110165;27;20054;-80
2022/09/21 06:15:52;;;;;;;2.63;1.50;;;6.20;99.90;;;;;;5109883;27;20565;-81
2022/09/21 06:18:18;;;;;;;9.80;1.60;;;6.30;99.90;;;;;;5084070;28;20055;-81
2022/09/21 06:20:44;;;;;;;4.20;1.92;;;6.30;99.90;;;;;;5090352;28;20065;-80
2022/09/21 06:23:12;;;;;;;3.85;1.50;;;6.40;99.90;;;;;;5090540;28;20039;-78
2022/09/21 06:25:38;;;;;;;2.60;1.60;;;6.40;99.90;;;;;;5104761;27;20046;-80
2022/09/21 06:28:10;;;;;;;4.13;1.40;;;6.40;99.90;;;;;;5097104;28;20349;-79
2022/09/21 06:30:37;;;;;;;2.78;1.63;;;6.50;99.90;;;;;;5098598;27;20077;-80
2022/09/21 06:33:05;;;;;;;6.15;1.60;;;6.50;99.90;;;;;;5108652;28;20172;-79
2022/09/21 06:35:32;;;;;;;13.10;1.50;;;6.50;99.90;;;;;;5110296;28;20082;-77
2022/09/21 06:38:06;;;;;;;3.50;2.00;;;6.60;99.90;;;;;;5110349;28;20054;-79
2022/09/21 06:40:34;;;;;;;3.58;1.80;;;6.70;99.90;;;;;;5119860;27;20047;-78
2022/09/21 06:43:01;;;;;;;2.13;1.35;;;6.70;99.90;;;;;;5089467;28;20423;-78
2022/09/21 06:45:29;;;;;;;3.40;1.75;;;6.70;99.90;;;;;;5089226;28;20385;-83
2022/09/21 06:47:55;;;;;;;7.75;2.00;;;6.80;99.90;;;;;;5091788;27;20051;-75
2022/09/21 06:50:22;;;;;;;22.98;2.45;;;6.80;99.90;;;;;;5101811;27;20092;-76
2022/09/21 06:52:47;;;;;;;7.05;2.17;;;6.90;99.90;;;;;;5120816;27;20042;-76
2022/09/21 06:55:13;;;;;;;8.48;1.92;;;6.90;99.90;;;;;;5125878;27;20038;-81
2022/09/21 06:57:40;;;;;;;14.70;1.75;;;7.00;99.90;;;;;;5129682;27;20610;-80
2022/09/21 07:00:08;;;;;;;2.45;1.50;;;7.00;99.90;;;;;;5105378;28;20043;-80
2022/09/21 07:02:34;;;;;;;8.20;2.20;;;7.20;99.90;;;;;;5105553;28;20456;-80
2022/09/21 07:05:00;;;;;;;3.22;2.08;;;7.30;99.90;;;;;;5128609;28;20099;-80
2022/09/21 07:07:29;;;;;;;;;;;7.30;99.90;;;;;;5110399;28;20043;-80
2022/09/21 07:09:55;;;;;;;5.93;1.83;;;7.50;99.90;;;;;;5110447;28;19924;-80
2022/09/21 07:12:20;;;;;;;3.47;2.00;;;7.50;99.90;;;;;;5109521;28;20078;-79
2022/09/21 07:14:46;;;;;;;3.60;2.30;;;7.60;99.90;;;;;;5109802;28;20083;-80
2022/09/21 07:17:13;;;;;;;5.03;1.98;;;7.60;99.90;;;;;;5108180;28;20039;-80
2022/09/21 07:19:39;;;;;;;4.90;2.45;;;7.60;99.90;;;;;;5106865;28;20139;-80
2022/09/21 07:22:05;;;;;;;6.00;2.33;;;7.70;99.90;;;;;;5097900;28;20077;-80
2022/09/21 07:24:32;;;;;;;5.40;2.22;;;7.80;99.90;;;;;;5092604;28;20096;-80
2022/09/21 07:26:57;;;;;;;4.93;2.85;;;7.90;99.90;;;;;;5110001;28;20051;-80
2022/09/21 07:29:23;;;;;;;6.50;3.45;;;8.00;99.90;;;;;;5109904;28;20047;-79
2022/09/21 07:31:49;;;;;;;7.05;3.08;;;8.00;99.90;;;;;;5104085;28;20052;-80
2022/09/21 07:34:15;;;;;;;6.03;2.70;;;8.10;99.90;;;;;;5106948;28;20048;-80
2022/09/21 07:36:41;;;;;;;7.32;3.33;;;8.20;99.90;;;;;;5097737;28;20039;-80
2022/09/21 07:39:08;;;;;;;11.13;4.65;;;8.40;99.90;;;;;;5087849;28;20074;-82
2022/09/21 07:41:34;;;;;;;6.80;3.25;;;8.60;99.90;;;;;;5077705;28;20062;-79
2022/09/21 07:44:00;;;;;;;7.05;3.42;;;8.70;99.90;;;;;;5070735;28;20542;-78
2022/09/21 07:46:26;;;;;;;12.52;4.72;;;8.80;99.90;;;;;;5068772;28;20055;-79
2022/09/21 07:48:55;;;;;;;10.32;3.55;;;8.90;99.90;;;;;;5069985;28;20127;-79
2022/09/21 07:51:22;;;;;;;10.20;4.57;;;9.10;99.90;;;;;;5053010;28;20052;-81
2022/09/21 07:53:55;;;;;;;12.63;4.55;;;9.20;99.90;;;;;;5078040;28;20048;-77
2022/09/21 07:56:21;;;;;;;13.57;4.57;;;9.30;99.90;;;;;;5069361;28;20056;-81
2022/09/21 07:59:05;;;;;;;11.75;5.03;;;9.40;99.90;;;;;;5084494;28;20032;-86
2022/09/21 08:01:37;;;;;;;20.10;6.07;;;9.50;99.90;;;;;;5052172;28;20128;-82
2022/09/21 08:04:04;;;;;;;15.45;5.53;;;9.70;99.90;;;;;;5089817;28;20066;-80
2022/09/21 08:06:31;;;;;;;16.63;6.78;;;9.80;99.90;;;;;;5094619;28;20043;-84
2022/09/21 08:08:59;;;;;;;19.00;6.32;;;9.90;99.90;;;;;;5093705;28;20496;-84
2022/09/21 08:11:26;;;;;;;17.10;6.57;;;10.00;99.90;;;;;;5109735;28;20485;-85
2022/09/21 08:13:53;;;;;;;14.60;5.07;;;10.20;99.90;;;;;;5073990;28;20075;-85
2022/09/21 08:16:19;;;;;;;17.45;5.78;;;10.30;99.90;;;;;;5104834;28;20055;-84
2022/09/21 08:18:44;;;;;;;16.73;5.47;;;10.40;99.90;;;;;;5111688;28;20047;-83
2022/09/21 08:21:12;;;;;;;12.68;4.68;;;10.60;99.90;;;;;;5079425;28;20052;-83
2022/09/21 08:23:41;;;;;;;14.05;4.97;;;10.70;99.90;;;;;;5086895;28;20751;-84
2022/09/21 08:26:09;;;;;;;13.40;4.72;;;10.80;99.90;;;;;;5087987;28;20044;-83
2022/09/21 08:28:35;;;;;;;10.68;4.53;;;11.00;99.90;;;;;;5087156;28;20100;-84
2022/09/21 08:31:03;;;;;;;11.65;4.05;;;11.00;99.90;;;;;;5080726;27;20044;-83
2022/09/21 08:33:30;;;;;;;10.18;4.10;;;11.20;99.90;;;;;;5108975;27;20051;-84
2022/09/21 08:35:58;;;;;;;10.02;3.92;;;11.20;99.90;;;;;;5110126;27;20066;-79
2022/09/21 08:38:24;;;;;;;13.00;3.53;;;11.30;99.90;;;;;;5136291;27;20067;-82
2022/09/21 08:40:52;;;;;;;12.32;3.42;;;11.50;99.90;;;;;;5092209;27;20388;-83
2022/09/21 08:43:34;;;;;;;11.20;4.38;;;11.50;99.90;;;;;;5109773;27;20141;-81
2022/09/21 08:46:09;;;;;;;11.88;2.70;;;11.60;99.90;;;;;;5122094;27;20074;-82
2022/09/21 08:48:42;;;;;;;6.97;1.92;;;11.70;99.90;;;;;;5126032;27;20094;-83
2022/09/21 08:51:13;;;;;;;9.18;2.13;;;11.70;99.90;;;;;;5132196;27;20043;-81
2022/09/21 08:53:45;;;;;;;8.77;2.75;;;11.70;99.90;;;;;;5126302;27;20043;-81
2022/09/21 08:56:12;;;;;;;10.45;2.80;;;11.80;99.90;;;;;;5143083;27;20039;-79
2022/09/21 08:58:40;;;;;;;7.28;2.40;;;11.90;99.90;;;;;;5120429;27;20461;-84
2022/09/21 09:01:12;;;;;;;8.85;2.60;;;12.10;99.90;;;;;;5102491;28;20526;-85
2022/09/21 09:03:44;;;;;;;10.07;3.00;;;12.10;99.90;;;;;;5110156;27;20084;-85
2022/09/21 09:06:19;;;;;;;8.60;3.10;;;12.20;99.90;;;;;;5109775;27;20468;-84
2022/09/21 09:09:09;;;;;;;6.95;2.80;;;12.40;99.90;;;;;;5128484;27;20078;-86
2022/09/21 09:11:59;;;;;;;8.38;3.05;;;12.50;99.90;;;;;;5115289;27;20039;-85
2022/09/21 09:14:34;;;;;;;8.55;2.70;;;12.60;99.90;;;;;;5113364;27;20072;-84
2022/09/21 09:17:26;;;;;;;10.15;3.15;;;12.80;99.90;;;;;;5120495;27;20035;-85
2022/09/21 09:20:00;;;;;;;8.55;2.72;;;12.80;99.90;;;;;;5131392;27;20089;-83
2022/09/21 09:22:33;;;;;;;8.80;3.03;;;12.80;99.90;;;;;;5133770;27;20507;-84
2022/09/21 09:25:05;;;;;;;7.13;3.22;;;12.90;99.90;;;;;;5129359;27;20050;-84
2022/09/21 09:27:39;;;;;;;10.85;2.60;;;13.00;99.90;;;;;;5118720;27;20065;-84
2022/09/21 09:30:18;;;;;;;9.07;2.38;;;13.00;99.90;;;;;;5130611;27;20051;-84
2022/09/21 09:32:47;;;;;;;11.90;3.33;;;13.10;99.90;;;;;;5115094;27;20051;-84
2022/09/21 09:35:29;;;;;;;7.80;2.80;;;13.10;99.90;;;;;;5115561;27;20150;-85
2022/09/21 09:37:59;;;;;;;8.95;2.30;;;13.00;99.90;;;;;;5122850;27;20043;-88
2022/09/21 09:40:58;;;;;;;8.93;3.05;;;13.10;99.90;;;;;;5084680;28;20036;-75
2022/09/21 09:43:29;;;;;;;4.85;1.77;;;13.10;99.90;;;;;;5119792;27;20046;-71
2022/09/21 09:46:35;;;;;;;7.88;1.67;;;13.20;99.90;;;;;;5133386;27;20505;-76
2022/09/21 09:49:23;;;;;;;6.10;1.40;;;13.30;99.90;;;;;;5040342;28;20057;-73
2022/09/21 09:51:50;;;;;;;7.47;1.52;;;13.30;99.90;;;;;;5122816;27;20042;-73
2022/09/21 09:54:17;;;;;;;1.92;1.20;;;13.40;99.90;;;;;;5105848;27;20035;-73
2022/09/21 09:56:43;;;;;;;8.65;1.50;;;13.40;99.90;;;;;;5129971;27;20069;-74
2022/09/21 09:59:28;;;;;;;5.57;1.30;;;13.50;99.90;;;;;;5112399;27;20096;-77
2022/09/21 10:02:18;;;;;;;6.88;1.33;;;13.60;99.90;;;;;;5116923;27;20048;-77
2022/09/21 10:05:07;;;;;;;4.35;1.17;;;13.80;99.90;;;;;;5140696;27;20433;-77
2022/09/21 10:07:44;;;;;;;8.85;1.35;;;13.90;99.90;;;;;;5143314;27;20039;-81
2022/09/21 10:10:28;;;;;;;7.05;1.63;;;14.00;99.90;;;;;;5131565;27;20403;-81
2022/09/21 10:13:05;;;;;;;6.93;1.58;;;14.10;99.90;;;;;;5115142;27;20035;-87
2022/09/21 10:15:31;;;;;;;3.22;0.80;;;14.20;99.90;;;;;;5115834;27;20075;-88
2022/09/21 10:18:21;;;;;;;4.07;1.00;;;14.30;99.90;;;;;;5115713;27;20043;-92
2022/09/21 10:21:01;;;;;;;3.08;0.82;;;14.50;99.90;;;;;;5103186;27;20039;-93
2022/09/21 10:23:29;;;;;;;10.15;1.90;;;14.60;99.90;;;;;;5113324;27;20047;-93
2022/09/21 10:26:01;;;;;;;3.10;0.93;;;14.70;99.90;;;;;;5114140;28;20043;-89
2022/09/21 10:28:28;;;;;;;8.63;1.73;;;14.80;99.90;;;;;;5098996;28;20091;-94
2022/09/21 10:31:09;;;;;;;3.15;0.77;;;14.90;99.90;;;;;;5114538;27;20081;-86
2022/09/21 10:33:47;;;;;;;7.30;1.42;;;15.00;99.90;;;;;;5121390;27;20046;-86
2022/09/21 10:36:29;;;;;;;4.65;1.20;;;15.20;99.90;;;;;;5134431;27;20487;-90
2022/09/21 10:38:55;;;;;;;2.78;0.73;;;15.30;99.90;;;;;;5099211;28;20040;-89
2022/09/21 10:41:21;;;;;;;;;;;15.50;99.90;;;;;;5115191;27;20035;-87
2022/09/21 10:43:49;;;;;;;5.60;0.90;;;15.60;99.90;;;;;;5119220;28;19915;-88
2022/09/21 10:46:15;;;;;;;5.00;0.85;;;15.70;99.90;;;;;;5103447;27;20909;-65
2022/09/21 10:48:44;;;;;;;2.45;0.75;;;15.80;99.90;;;;;;5130319;27;20122;-70
2022/09/21 10:51:26;;;;;;;1.98;0.90;;;15.90;99.90;;;;;;5140188;27;20042;-83
2022/09/21 10:53:52;;;;;;;8.43;1.42;;;16.00;99.90;;;;;;5127707;27;20467;-76
2022/09/21 10:56:18;;;;;;;2.63;0.77;;;16.10;99.90;;;;;;5124599;27;20125;-77
2022/09/21 10:59:17;;;;;;;2.15;1.02;;;16.30;99.90;;;;;;5131703;27;20046;-74
2022/09/21 11:01:51;;;;;;;7.25;0.95;;;16.50;99.90;;;;;;5145004;27;20046;-88
2022/09/21 11:04:38;;;;;;;5.05;0.60;;;16.70;99.90;;;;;;5108787;27;20053;-85
2022/09/21 11:07:16;;;;;;;2.60;0.88;;;16.90;99.90;;;;;;5112664;27;20040;-88
2022/09/21 11:09:55;;;;;;;6.18;1.13;;;17.20;99.90;;;;;;5090164;28;20052;-86
2022/09/21 11:12:40;;;;;;;6.18;1.00;;;17.40;99.90;;;;;;5119327;27;20036;-86
2022/09/21 11:15:13;;;;;;;5.20;1.10;;;17.70;99.90;;;;;;5124859;27;20042;-88
2022/09/21 11:18:03;;;;;;;3.70;1.10;;;17.90;99.90;;;;;;5123759;27;20035;-82
2022/09/21 11:20:35;;;;;;;3.08;0.93;;;17.90;99.70;;;;;;5135583;27;20046;-81
2022/09/21 11:23:35;;;;;;;4.50;1.25;;;17.70;99.90;;;;;;5135072;27;20459;-82
2022/09/21 11:26:10;;;;;;;5.65;0.80;;;17.50;99.90;;;;;;5123498;27;20051;-73
2022/09/21 11:28:57;;;;;;;3.58;0.73;;;17.40;99.90;;;;;;5134687;27;20039;-73
2022/09/21 11:31:32;;;;;;;3.00;0.57;;;17.30;98.30;;;;;;5140647;27;20058;-73
2022/09/21 11:34:26;;;;;;;3.00;0.70;;;17.30;99.90;;;;;;5148348;27;20286;-73
2022/09/21 11:37:09;;;;;;;2.42;0.60;;;17.70;99.80;;;;;;5150169;27;20076;-72
2022/09/21 11:39:53;;;;;;;5.03;0.63;;;18.60;99.90;;;;;;5134047;27;20379;-73
2022/09/21 11:42:31;;;;;;;2.38;0.73;;;19.30;97.30;;;;;;5142496;27;20173;-71
2022/09/21 11:45:00;;;;;;;2.30;0.50;;;19.30;97.40;;;;;;5147026;27;20038;-72
2022/09/21 11:47:35;;;;;;;3.03;0.80;;;19.10;98.60;;;;;;5149823;27;20063;-71
2022/09/21 11:50:25;;;;;;;7.00;1.20;;;18.80;96.90;;;;;;5124576;27;20494;-71
2022/09/21 11:53:21;;;;;;;2.10;0.60;;;18.70;91.50;;;;;;5135361;27;20039;-70
2022/09/21 11:55:59;;;;;;;1.88;0.70;;;19.20;95.30;;;;;;5122400;27;20039;-74
2022/09/21 11:58:25;;;;;;;6.75;1.02;;;20.30;90.90;;;;;;5122394;27;20045;-86
2022/09/21 12:00:56;;;;;;;3.28;0.98;;;21.20;96.40;;;;;;5099350;27;20038;-88
2022/09/21 12:03:35;;;;;;;2.95;0.80;;;22.10;94.60;;;;;;5116443;27;20365;-86
2022/09/21 12:06:10;;;;;;;4.30;1.00;;;22.80;85.60;;;;;;5116887;27;20414;-87
2022/09/21 12:09:18;;;;;;;2.10;0.73;;;23.10;85.70;;;;;;5129491;27;20054;-87
2022/09/21 12:12:06;;;;;;;4.38;0.60;;;23.30;76.60;;;;;;5117712;27;20087;-87
2022/09/21 12:14:48;;;;;;;2.83;0.68;;;23.70;70.70;;;;;;5117347;27;20050;-87
2022/09/21 12:17:29;;;;;;;2.20;0.50;;;24.10;83.40;;;;;;5105463;27;20043;-88
2022/09/21 12:20:42;;;;;;;5.03;0.80;;;24.50;75.80;;;;;;5114827;27;20055;-88
2022/09/21 12:23:20;;;;;;;4.38;0.90;;;24.90;61.90;;;;;;5069561;27;20524;-89
2022/09/21 12:25:52;;;;;;;3.30;0.70;;;25.20;73.20;;;;;;5128354;27;20071;-89
2022/09/21 12:28:29;;;;;;;3.58;0.90;;;25.20;72.30;;;;;;5105316;27;20380;-88
2022/09/21 12:31:04;;;;;;;2.92;0.80;;;25.10;67.80;;;;;;5117859;27;20069;-88
2022/09/21 12:33:35;;;;;;;3.55;0.77;;;25.10;67.50;;;;;;5133104;27;20479;-88
2022/09/21 12:36:13;;;;;;;1.65;0.60;;;25.30;67.90;;;;;;5136915;27;20432;-89
2022/09/21 12:39:02;;;;;;;3.65;0.80;;;25.50;64.50;;;;;;5119739;27;20059;-89
2022/09/21 12:41:51;;;;;;;1.98;0.65;;;25.90;61.20;;;;;;5098348;27;20035;-89
2022/09/21 12:44:50;;;;;;;4.20;0.60;;;26.20;65.10;;;;;;5078662;28;20035;-87
2022/09/21 12:47:22;;;;;;;2.67;0.82;;;26.50;61.70;;;;;;5110946;27;20475;-88
2022/09/21 12:49:55;;;;;;;4.22;0.98;;;26.70;61.60;;;;;;5100117;27;20046;-89
2022/09/21 12:52:24;;;;;;;2.95;0.80;;;26.70;60.80;;;;;;5100072;27;20038;-89
2022/09/21 12:55:20;;;;;;;3.92;0.80;;;26.80;60.00;;;;;;5116812;27;20051;-89
2022/09/21 12:58:01;;;;;;;4.43;0.80;;;27.00;57.20;;;;;;5062209;27;20043;-89
2022/09/21 13:00:35;;;;;;;4.68;0.90;;;26.90;57.10;;;;;;5116369;27;20043;-89
2022/09/21 13:03:32;;;;;;;2.80;0.70;;;26.80;57.30;;;;;;5114810;27;20471;-88
2022/09/21 13:06:07;;;;;;;3.15;0.50;;;26.90;53.50;;;;;;5078236;28;20055;-88
2022/09/21 13:08:37;;;;;;;3.75;0.70;;;27.10;53.80;;;;;;5083886;27;20476;-88
2022/09/21 13:11:07;;;;;;;2.20;0.60;;;27.20;55.40;;;;;;5115227;27;20082;-88
2022/09/21 13:13:38;;;;;;;1.95;0.77;;;27.40;54.80;;;;;;5081921;27;20046;-88
2022/09/21 13:16:22;;;;;;;2.20;0.52;;;27.40;53.10;;;;;;5097621;27;20091;-88
2022/09/21 13:18:57;;;;;;;3.15;0.80;;;27.50;50.30;;;;;;5115663;27;20719;-88
2022/09/21 13:21:30;;;;;;;2.15;0.60;;;27.30;51.00;;;;;;5099092;27;20043;-88